Time;durP1;ratioP1;P1;durP2;ratioP2;P2;SDS_P1;SDS_P2;PMS_P1;PMS_P2;Temp;Humidity;BMP_temperature;BMP_pressure;BME280_temperature;BME280_humidity;BME280_pressure;Samples;Min_cycle;Max_cycle;Signal;HPM_P1;HPM_P2
2023/03/09 00:02:59;;;;;;;9.02;1.70;;;14.70;79.50;;;;;;5037389;23;20053;-77
2023/03/09 00:05:24;;;;;;;6.80;1.75;;;14.70;79.20;;;;;;5012527;28;20030;-75
2023/03/09 00:07:54;;;;;;;6.63;2.08;;;14.80;79.00;;;;;;5012691;28;20170;-76
2023/03/09 00:10:20;;;;;;;6.05;1.95;;;14.70;78.50;;;;;;4994807;28;20033;-76
2023/03/09 00:12:45;;;;;;;6.45;1.90;;;14.80;78.40;;;;;;5012592;28;20038;-77
2023/03/09 00:15:11;;;;;;;6.13;1.80;;;14.80;78.20;;;;;;4994620;28;20397;-74
2023/03/09 00:17:37;;;;;;;5.97;1.90;;;14.80;77.40;;;;;;5012513;28;20042;-76
2023/03/09 00:20:17;;;;;;;4.25;1.48;;;14.80;77.30;;;;;;5012686;28;20025;-76
2023/03/09 00:22:53;;;;;;;4.65;1.85;;;14.80;77.00;;;;;;5012291;28;20046;-76
2023/03/09 00:25:21;;;;;;;7.45;1.67;;;14.80;77.00;;;;;;5012852;28;20050;-75
2023/03/09 00:27:52;;;;;;;8.63;2.08;;;14.70;76.70;;;;;;4995111;28;20110;-75
2023/03/09 00:30:19;;;;;;;8.18;2.03;;;14.70;76.90;;;;;;5013313;28;20038;-76
2023/03/09 00:32:45;;;;;;;7.30;2.00;;;14.70;76.90;;;;;;5017016;28;20057;-75
2023/03/09 00:35:11;;;;;;;5.47;1.88;;;14.70;76.60;;;;;;5018430;28;20034;-77
2023/03/09 00:37:37;;;;;;;5.30;1.95;;;14.70;76.50;;;;;;5016584;28;20608;-76
2023/03/09 00:40:09;;;;;;;4.38;1.75;;;14.70;76.50;;;;;;5015253;28;20034;-77
2023/03/09 00:42:36;;;;;;;5.68;2.58;;;14.70;76.50;;;;;;5016638;28;20038;-75
2023/03/09 00:45:03;;;;;;;5.60;1.85;;;14.70;76.80;;;;;;5015006;28;20045;-75
2023/03/09 00:47:29;;;;;;;6.45;2.03;;;14.70;76.30;;;;;;5016466;28;20068;-76
2023/03/09 00:49:55;;;;;;;6.45;1.92;;;14.70;76.20;;;;;;5014874;28;20057;-76
2023/03/09 00:52:21;;;;;;;4.57;1.80;;;14.70;76.10;;;;;;5016452;28;20541;-74
2023/03/09 00:54:46;;;;;;;4.10;1.55;;;14.70;75.50;;;;;;4998431;28;20034;-76
2023/03/09 00:57:12;;;;;;;4.97;1.80;;;14.70;75.10;;;;;;4998605;28;20041;-77
2023/03/09 00:59:38;;;;;;;6.40;1.80;;;14.70;74.90;;;;;;5015704;28;20390;-75
2023/03/09 01:02:04;;;;;;;6.88;1.90;;;14.70;74.70;;;;;;5015593;28;20560;-75
2023/03/09 01:04:29;;;;;;;5.63;1.77;;;14.70;74.80;;;;;;5015708;28;20109;-75
2023/03/09 01:06:55;;;;;;;7.15;1.90;;;14.80;74.70;;;;;;5016020;28;20042;-74
2023/03/09 01:09:21;;;;;;;6.57;1.45;;;14.80;74.60;;;;;;5015931;28;20107;-75
2023/03/09 01:11:47;;;;;;;4.90;1.63;;;14.70;74.00;;;;;;5016017;28;20477;-74
2023/03/09 01:14:13;;;;;;;7.20;1.77;;;14.80;73.80;;;;;;5015783;28;20129;-76
2023/03/09 01:16:38;;;;;;;6.43;1.80;;;14.80;73.50;;;;;;5015476;28;20482;-74
2023/03/09 01:19:04;;;;;;;5.97;1.88;;;14.80;73.40;;;;;;5015922;28;20398;-74
2023/03/09 01:21:30;;;;;;;6.65;1.80;;;14.80;73.30;;;;;;4998835;28;20508;-76
2023/03/09 01:23:56;;;;;;;6.90;1.88;;;14.80;73.00;;;;;;5015915;28;20044;-75
2023/03/09 01:26:21;;;;;;;4.68;1.50;;;14.80;73.00;;;;;;5015456;28;20512;-76
2023/03/09 01:28:47;;;;;;;4.82;1.73;;;14.80;72.70;;;;;;5014995;28;20042;-75
2023/03/09 01:31:14;;;;;;;4.38;1.63;;;14.90;72.70;;;;;;5014040;28;20026;-76
2023/03/09 01:33:42;;;;;;;4.90;1.83;;;14.90;72.50;;;;;;5015458;28;20038;-76
2023/03/09 01:36:12;;;;;;;4.68;1.50;;;15.00;72.40;;;;;;4997738;28;20038;-75
2023/03/09 01:38:37;;;;;;;4.75;1.90;;;15.00;72.10;;;;;;5015290;28;20061;-77
2023/03/09 01:41:03;;;;;;;3.92;1.55;;;15.00;72.20;;;;;;5014691;28;20426;-75
2023/03/09 01:43:31;;;;;;;5.80;1.70;;;15.00;72.10;;;;;;5014192;28;20112;-76
2023/03/09 01:46:21;;;;;;;3.78;1.38;;;15.10;72.00;;;;;;5015203;28;20056;-75
2023/03/09 01:49:25;;;;;;;6.78;1.67;;;15.10;72.10;;;;;;4997531;28;20191;-75
2023/03/09 01:52:09;;;;;;;2.65;1.20;;;15.10;71.90;;;;;;5013545;28;20108;-75
2023/03/09 01:54:47;;;;;;;4.68;2.00;;;15.20;71.70;;;;;;5014733;28;20034;-75
2023/03/09 01:57:28;;;;;;;5.95;1.80;;;15.20;71.60;;;;;;5014493;28;20065;-74
2023/03/09 02:00:05;;;;;;;3.72;1.45;;;15.20;71.60;;;;;;5014867;28;20034;-76
2023/03/09 02:02:35;;;;;;;8.88;1.92;;;15.30;71.70;;;;;;5014450;28;20354;-76
2023/03/09 02:05:05;;;;;;;3.90;1.52;;;15.30;70.70;;;;;;5015052;28;20026;-74
2023/03/09 02:07:34;;;;;;;7.72;1.58;;;15.30;70.90;;;;;;5014250;28;20038;-76
2023/03/09 02:10:17;;;;;;;6.10;1.55;;;15.30;70.20;;;;;;5015185;28;20512;-75
2023/03/09 02:12:52;;;;;;;3.67;1.23;;;15.40;70.40;;;;;;5013455;28;20510;-75
2023/03/09 02:15:19;;;;;;;3.90;1.60;;;15.30;70.40;;;;;;5014492;28;20069;-75
2023/03/09 02:17:45;;;;;;;5.20;1.58;;;15.40;70.30;;;;;;5014383;28;20034;-75
2023/03/09 02:20:31;;;;;;;5.20;1.60;;;15.40;70.40;;;;;;5014600;28;20034;-76
2023/03/09 02:22:57;;;;;;;5.05;1.50;;;15.40;70.20;;;;;;5014274;28;20077;-76
2023/03/09 02:25:45;;;;;;;5.13;1.60;;;15.40;70.20;;;;;;5014682;28;20141;-74
2023/03/09 02:28:11;;;;;;;5.30;1.50;;;15.30;70.10;;;;;;5014686;28;20065;-76
2023/03/09 02:30:40;;;;;;;4.57;1.70;;;15.30;70.30;;;;;;5014466;28;20065;-75
2023/03/09 02:33:12;;;;;;;5.95;1.77;;;15.30;70.30;;;;;;5014216;28;20041;-74
2023/03/09 02:35:38;;;;;;;5.68;1.70;;;15.20;70.80;;;;;;4996317;28;20045;-76
2023/03/09 02:38:11;;;;;;;4.75;1.42;;;15.20;70.50;;;;;;5012620;28;20033;-75
2023/03/09 02:40:38;;;;;;;5.57;1.63;;;15.20;70.40;;;;;;5013757;28;20030;-75
2023/03/09 02:43:04;;;;;;;4.03;1.42;;;15.20;70.40;;;;;;5013506;28;20423;-75
2023/03/09 02:45:32;;;;;;;4.13;1.48;;;15.20;70.60;;;;;;4996302;28;20041;-74
2023/03/09 02:47:59;;;;;;;8.05;1.83;;;15.20;70.60;;;;;;5013458;28;20112;-75
2023/03/09 02:50:24;;;;;;;3.83;1.35;;;15.30;70.90;;;;;;5013628;28;20030;-75
2023/03/09 02:52:50;;;;;;;5.90;1.77;;;15.30;71.00;;;;;;5014035;28;20429;-76
2023/03/09 02:55:17;;;;;;;5.47;2.13;;;15.30;70.90;;;;;;5014306;28;20026;-76
2023/03/09 02:57:44;;;;;;;5.65;1.73;;;15.30;71.00;;;;;;5013679;28;20030;-76
2023/03/09 03:00:12;;;;;;;6.55;1.83;;;15.30;71.00;;;;;;5013641;28;20037;-75
2023/03/09 03:02:38;;;;;;;4.75;1.40;;;15.30;71.50;;;;;;4995601;28;20058;-74
2023/03/09 03:05:05;;;;;;;4.28;1.40;;;15.30;71.60;;;;;;5013408;28;20038;-75
2023/03/09 03:07:31;;;;;;;7.40;1.98;;;15.30;71.70;;;;;;5013498;28;20042;-77
2023/03/09 03:09:56;;;;;;;6.13;1.98;;;15.30;71.80;;;;;;5013492;28;20434;-75
2023/03/09 03:12:23;;;;;;;5.57;1.90;;;15.30;71.90;;;;;;5013499;28;20401;-75
2023/03/09 03:14:49;;;;;;;4.93;1.50;;;15.30;71.90;;;;;;5013286;28;20116;-75
2023/03/09 03:17:14;;;;;;;7.45;1.83;;;15.30;72.10;;;;;;5012997;28;20593;-75
2023/03/09 03:19:40;;;;;;;8.20;1.95;;;15.30;72.20;;;;;;5013345;28;20049;-76
2023/03/09 03:22:06;;;;;;;4.30;1.50;;;15.30;72.50;;;;;;5013218;28;20041;-75
2023/03/09 03:24:39;;;;;;;7.32;1.77;;;15.40;72.80;;;;;;5013420;28;20065;-75
2023/03/09 03:27:05;;;;;;;4.90;1.65;;;15.40;73.10;;;;;;5013261;28;20034;-75
2023/03/09 03:29:31;;;;;;;6.93;1.77;;;15.40;73.80;;;;;;5011929;28;20030;-76
2023/03/09 03:31:58;;;;;;;8.13;1.90;;;15.40;73.70;;;;;;4995206;28;20030;-75
2023/03/09 03:34:24;;;;;;;7.10;1.80;;;15.40;74.10;;;;;;5013122;28;20508;-75
2023/03/09 03:36:49;;;;;;;9.25;2.08;;;15.40;74.50;;;;;;5013033;28;20030;-75
2023/03/09 03:39:15;;;;;;;6.13;1.73;;;15.40;75.00;;;;;;5013162;28;20398;-75
2023/03/09 03:41:41;;;;;;;6.28;1.98;;;15.40;75.60;;;;;;5013405;28;20038;-75
2023/03/09 03:44:07;;;;;;;7.82;2.33;;;15.40;75.80;;;;;;5016015;28;20073;-72
2023/03/09 03:46:32;;;;;;;5.65;1.92;;;15.40;76.30;;;;;;5014846;28;20498;-74
2023/03/09 03:48:58;;;;;;;8.85;2.42;;;15.40;76.70;;;;;;4995193;28;20030;-76
2023/03/09 03:51:24;;;;;;;6.82;2.05;;;15.40;77.10;;;;;;5012751;28;20034;-75
2023/03/09 03:53:50;;;;;;;5.15;1.60;;;15.40;77.50;;;;;;5012344;28;20389;-76
2023/03/09 03:56:16;;;;;;;8.98;2.33;;;15.30;77.60;;;;;;5012495;28;20074;-75
2023/03/09 03:58:42;;;;;;;9.43;3.10;;;15.40;77.90;;;;;;5012529;28;20124;-76
2023/03/09 04:01:08;;;;;;;9.57;2.47;;;15.30;78.30;;;;;;5012328;28;20124;-77
2023/03/09 04:03:34;;;;;;;9.75;2.17;;;15.30;78.70;;;;;;5012769;28;20493;-75
2023/03/09 04:06:02;;;;;;;11.00;2.83;;;15.30;78.70;;;;;;5012070;28;20034;-76
2023/03/09 04:08:28;;;;;;;10.50;2.20;;;15.30;78.90;;;;;;5012444;28;20117;-75
2023/03/09 04:10:54;;;;;;;6.45;2.38;;;15.30;79.10;;;;;;5012339;28;20052;-75
2023/03/09 04:13:20;;;;;;;11.35;2.50;;;15.30;79.30;;;;;;5012248;28;20038;-74
2023/03/09 04:15:46;;;;;;;9.80;2.45;;;15.30;79.40;;;;;;5012252;28;20113;-75
2023/03/09 04:18:11;;;;;;;8.85;2.83;;;15.30;79.50;;;;;;5012410;28;20120;-76
2023/03/09 04:20:39;;;;;;;10.85;2.60;;;15.30;79.60;;;;;;5012391;28;20037;-74
2023/03/09 04:23:05;;;;;;;7.63;2.58;;;15.30;79.70;;;;;;5012394;28;20042;-75
2023/03/09 04:25:30;;;;;;;8.05;2.10;;;15.40;80.00;;;;;;5012204;28;20065;-74
2023/03/09 04:27:56;;;;;;;10.45;3.65;;;15.40;79.90;;;;;;5012791;28;20473;-74
2023/03/09 04:30:22;;;;;;;10.18;3.67;;;15.40;79.80;;;;;;5012307;28;20034;-76
2023/03/09 04:32:49;;;;;;;11.88;3.33;;;15.40;79.80;;;;;;4994509;28;20059;-75
2023/03/09 04:35:15;;;;;;;8.25;2.85;;;15.40;79.90;;;;;;5012047;28;20049;-74
2023/03/09 04:37:43;;;;;;;6.85;2.30;;;15.40;79.90;;;;;;5012179;28;20034;-77
2023/03/09 04:40:09;;;;;;;11.10;4.53;;;15.40;79.90;;;;;;5012375;28;20454;-75
2023/03/09 04:42:35;;;;;;;8.90;2.28;;;15.40;80.00;;;;;;5010742;28;20046;-76
2023/03/09 04:45:01;;;;;;;7.72;2.70;;;15.40;80.00;;;;;;5012250;28;20034;-74
2023/03/09 04:47:27;;;;;;;10.40;2.60;;;15.40;80.10;;;;;;5012254;28;20045;-73
2023/03/09 04:49:52;;;;;;;10.25;2.50;;;15.40;80.10;;;;;;5011871;28;20030;-75
2023/03/09 04:52:18;;;;;;;7.97;2.72;;;15.30;80.10;;;;;;5012124;28;20037;-75
2023/03/09 04:54:44;;;;;;;7.53;2.65;;;15.30;80.20;;;;;;4994413;28;20034;-75
2023/03/09 04:57:09;;;;;;;7.80;2.45;;;15.40;80.20;;;;;;5011801;28;20034;-75
2023/03/09 04:59:35;;;;;;;9.40;2.72;;;15.40;80.20;;;;;;4994142;28;20040;-75
2023/03/09 05:02:01;;;;;;;9.30;2.47;;;15.30;80.30;;;;;;4993941;28;20549;-75
2023/03/09 05:04:26;;;;;;;6.63;2.47;;;15.40;80.60;;;;;;5011573;28;20469;-78
2023/03/09 05:06:52;;;;;;;10.75;2.80;;;15.30;80.20;;;;;;5012150;28;20023;-76
2023/03/09 05:09:18;;;;;;;8.55;2.67;;;15.30;80.30;;;;;;5011822;28;20544;-75
2023/03/09 05:11:46;;;;;;;10.23;3.00;;;15.40;80.30;;;;;;5011516;28;20038;-75
2023/03/09 05:14:11;;;;;;;11.70;2.75;;;15.30;80.20;;;;;;5012407;28;20054;-75
2023/03/09 05:16:37;;;;;;;11.05;2.65;;;15.40;80.40;;;;;;5012626;28;20141;-74
2023/03/09 05:19:03;;;;;;;7.80;2.88;;;15.40;80.40;;;;;;5015471;28;20093;-75
2023/03/09 05:21:28;;;;;;;6.05;2.50;;;15.40;80.30;;;;;;5015470;28;20076;-75
2023/03/09 05:23:54;;;;;;;12.30;2.97;;;15.40;80.20;;;;;;5014837;28;20042;-76
2023/03/09 05:26:20;;;;;;;11.10;2.70;;;15.40;80.20;;;;;;4997424;28;20034;-75
2023/03/09 05:28:48;;;;;;;8.38;2.95;;;15.40;80.20;;;;;;5015004;28;20117;-75
2023/03/09 05:31:14;;;;;;;9.15;2.33;;;15.40;80.10;;;;;;5015089;28;20100;-76
2023/03/09 05:33:40;;;;;;;13.43;3.10;;;15.50;80.00;;;;;;5014975;28;20030;-75
2023/03/09 05:36:21;;;;;;;8.60;2.50;;;15.50;79.90;;;;;;5014753;28;20045;-75
2023/03/09 05:38:47;;;;;;;8.85;3.50;;;15.50;79.70;;;;;;5013759;28;20393;-75
2023/03/09 05:41:13;;;;;;;10.40;3.00;;;15.40;79.60;;;;;;5013519;28;20053;-76
2023/03/09 05:43:42;;;;;;;9.15;3.33;;;15.50;79.80;;;;;;5014682;28;20096;-76
2023/03/09 05:46:10;;;;;;;9.07;2.95;;;15.50;79.80;;;;;;5013470;28;20102;-76
2023/03/09 05:48:36;;;;;;;10.23;3.00;;;15.40;79.80;;;;;;5014715;28;20030;-75
2023/03/09 05:51:02;;;;;;;8.38;3.08;;;15.40;79.80;;;;;;5014867;28;20061;-75
2023/03/09 05:53:29;;;;;;;8.90;2.58;;;15.40;79.80;;;;;;5014664;28;20508;-76
2023/03/09 05:55:56;;;;;;;15.95;3.90;;;15.40;79.90;;;;;;5014682;28;20402;-75
2023/03/09 05:58:22;;;;;;;13.27;3.17;;;15.40;80.10;;;;;;5014445;28;20092;-76
2023/03/09 06:00:48;;;;;;;19.55;7.15;;;15.40;79.90;;;;;;5014929;28;20038;-75
2023/03/09 06:03:14;;;;;;;8.15;3.05;;;15.40;80.10;;;;;;5014867;28;20516;-75
2023/03/09 06:05:39;;;;;;;13.45;3.85;;;15.40;80.30;;;;;;5014651;28;20034;-74
2023/03/09 06:08:05;;;;;;;11.65;4.03;;;15.30;79.80;;;;;;5014646;28;20034;-75
2023/03/09 06:10:31;;;;;;;13.05;3.90;;;15.30;79.90;;;;;;5013342;28;20033;-76
2023/03/09 06:12:56;;;;;;;11.38;3.50;;;15.30;79.80;;;;;;4996662;28;20374;-76
2023/03/09 06:15:22;;;;;;;12.90;3.55;;;15.30;79.70;;;;;;5014238;28;20041;-75
2023/03/09 06:17:48;;;;;;;10.38;3.40;;;15.30;79.60;;;;;;5014063;28;20042;-76
2023/03/09 06:20:14;;;;;;;11.02;3.65;;;15.40;79.60;;;;;;5013946;28;20044;-74
2023/03/09 06:22:40;;;;;;;11.80;3.55;;;15.30;79.60;;;;;;5013986;28;20445;-76
2023/03/09 06:25:07;;;;;;;11.82;3.20;;;15.30;79.50;;;;;;5014132;28;20034;-76
2023/03/09 06:27:34;;;;;;;14.18;4.40;;;15.30;79.50;;;;;;5014104;28;20370;-76
2023/03/09 06:30:00;;;;;;;13.88;3.97;;;15.30;79.30;;;;;;5012443;28;20030;-77
2023/03/09 06:32:26;;;;;;;11.77;4.18;;;15.30;79.40;;;;;;5013865;28;20064;-75
2023/03/09 06:34:51;;;;;;;9.07;3.88;;;15.30;79.50;;;;;;5013712;28;20041;-77
2023/03/09 06:37:17;;;;;;;11.98;3.83;;;15.40;79.40;;;;;;5013881;28;20038;-75
2023/03/09 06:39:43;;;;;;;12.30;4.13;;;15.30;79.40;;;;;;4995923;28;20581;-76
2023/03/09 06:42:09;;;;;;;14.88;4.90;;;15.40;79.50;;;;;;5013795;28;20549;-76
2023/03/09 06:44:35;;;;;;;10.27;4.15;;;15.40;79.50;;;;;;5014027;28;20030;-77
2023/03/09 06:47:00;;;;;;;11.52;4.50;;;15.40;79.20;;;;;;4996871;28;20101;-74
2023/03/09 06:49:26;;;;;;;21.23;4.80;;;15.40;79.20;;;;;;5014100;28;20143;-75
2023/03/09 06:51:52;;;;;;;13.10;4.20;;;15.50;79.00;;;;;;5021276;28;20038;-77
2023/03/09 06:54:17;;;;;;;10.18;4.30;;;15.50;78.90;;;;;;5033171;28;20462;-76
2023/03/09 06:56:43;;;;;;;12.68;4.30;;;15.50;78.80;;;;;;5020374;28;20057;-75
2023/03/09 06:59:09;;;;;;;12.55;5.05;;;15.50;78.40;;;;;;5013792;28;20068;-76
2023/03/09 07:01:34;;;;;;;13.77;4.05;;;15.60;78.20;;;;;;5015313;28;20092;-76
2023/03/09 07:04:01;;;;;;;9.48;4.07;;;15.60;78.00;;;;;;5012976;28;20046;-75
2023/03/09 07:06:26;;;;;;;14.30;4.07;;;15.70;77.90;;;;;;4995569;28;20049;-74
2023/03/09 07:08:52;;;;;;;14.85;5.05;;;15.80;77.70;;;;;;5013159;28;20072;-76
2023/03/09 07:11:18;;;;;;;14.00;4.15;;;15.80;77.20;;;;;;5012867;28;20389;-74
2023/03/09 07:13:43;;;;;;;14.93;4.45;;;15.90;77.10;;;;;;5013218;28;20029;-75
2023/03/09 07:16:09;;;;;;;10.35;4.47;;;15.90;76.90;;;;;;5022546;28;20030;-73
2023/03/09 07:18:35;;;;;;;15.32;4.70;;;15.90;76.50;;;;;;5022880;28;20025;-74
2023/03/09 07:21:02;;;;;;;16.40;4.97;;;15.80;76.50;;;;;;5022375;28;20390;-73
2023/03/09 07:23:29;;;;;;;14.85;4.68;;;15.80;76.50;;;;;;5020960;28;20042;-73
2023/03/09 07:25:58;;;;;;;16.73;5.40;;;15.90;76.50;;;;;;5012888;28;20030;-73
2023/03/09 07:28:24;;;;;;;11.85;4.43;;;15.80;76.10;;;;;;5013000;28;20033;-73
2023/03/09 07:30:50;;;;;;;13.88;4.70;;;15.80;76.00;;;;;;5013260;28;20028;-73
2023/03/09 07:33:16;;;;;;;14.52;4.88;;;15.80;75.80;;;;;;5014223;28;20052;-77
2023/03/09 07:35:41;;;;;;;18.23;5.18;;;15.80;75.80;;;;;;5012693;28;20022;-73
2023/03/09 07:38:07;;;;;;;14.15;4.75;;;15.80;75.80;;;;;;5012370;28;20053;-75
2023/03/09 07:40:33;;;;;;;16.45;5.75;;;15.80;75.80;;;;;;5011707;28;20034;-74
2023/03/09 07:42:59;;;;;;;17.83;5.63;;;15.80;75.90;;;;;;5012535;28;20383;-76
2023/03/09 07:45:25;;;;;;;16.25;5.53;;;15.80;75.70;;;;;;5012713;28;20057;-73
2023/03/09 07:47:50;;;;;;;24.27;4.88;;;15.90;75.80;;;;;;5012710;28;20093;-74
2023/03/09 07:50:17;;;;;;;17.70;6.38;;;16.00;75.80;;;;;;5012844;28;20030;-76
2023/03/09 07:52:43;;;;;;;17.25;6.30;;;16.10;75.60;;;;;;5013299;28;20541;-75
2023/03/09 07:55:11;;;;;;;14.32;5.35;;;16.20;75.40;;;;;;5014610;28;20034;-75
2023/03/09 07:57:38;;;;;;;15.07;5.03;;;16.30;75.50;;;;;;5014774;28;20041;-75
2023/03/09 08:00:12;;;;;;;18.42;5.40;;;16.40;75.50;;;;;;5033095;28;20029;-75
2023/03/09 08:02:40;;;;;;;12.38;4.38;;;16.40;75.60;;;;;;5032359;28;20107;-74
2023/03/09 08:05:10;;;;;;;13.25;4.10;;;16.40;75.60;;;;;;5032179;28;20040;-74
2023/03/09 08:07:36;;;;;;;11.68;4.25;;;16.40;75.90;;;;;;5032105;28;20037;-75
2023/03/09 08:10:03;;;;;;;13.27;4.18;;;16.50;76.10;;;;;;5014358;28;20386;-74
2023/03/09 08:12:29;;;;;;;15.30;3.90;;;16.50;76.10;;;;;;5031976;28;20129;-75
2023/03/09 08:14:54;;;;;;;10.73;3.53;;;16.60;76.10;;;;;;5032820;28;20496;-74
2023/03/09 08:17:20;;;;;;;13.95;4.22;;;16.60;76.10;;;;;;5032533;28;20033;-75
2023/03/09 08:19:46;;;;;;;15.98;4.35;;;16.70;76.10;;;;;;5031908;28;20057;-75
2023/03/09 08:22:11;;;;;;;15.45;3.58;;;16.80;75.70;;;;;;5031181;28;20057;-75
2023/03/09 08:24:37;;;;;;;12.10;3.40;;;16.90;75.60;;;;;;5031936;28;20037;-76
2023/03/09 08:27:03;;;;;;;13.70;3.20;;;17.00;75.20;;;;;;5031746;28;20506;-76
2023/03/09 08:29:29;;;;;;;11.18;3.47;;;17.10;74.80;;;;;;5027372;28;20220;-75
2023/03/09 08:31:54;;;;;;;11.23;3.85;;;17.20;74.70;;;;;;5011435;28;20390;-75
2023/03/09 08:34:20;;;;;;;12.32;3.92;;;17.40;74.40;;;;;;5011068;28;20174;-74
2023/03/09 08:36:46;;;;;;;11.07;3.25;;;17.50;73.90;;;;;;5012097;28;20088;-78
2023/03/09 08:39:12;;;;;;;11.65;3.40;;;17.50;73.60;;;;;;4994610;28;20133;-74
2023/03/09 08:41:38;;;;;;;14.27;3.90;;;17.60;73.60;;;;;;5011929;28;20066;-76
2023/03/09 08:44:04;;;;;;;12.05;3.55;;;17.60;73.50;;;;;;5011983;28;20109;-76
2023/03/09 08:46:30;;;;;;;12.48;3.38;;;17.70;73.60;;;;;;5011674;28;20485;-75
2023/03/09 08:48:56;;;;;;;14.25;3.85;;;17.70;73.50;;;;;;5011943;28;20061;-75
2023/03/09 08:51:22;;;;;;;16.42;4.28;;;17.80;73.60;;;;;;5012755;28;20110;-75
2023/03/09 08:53:48;;;;;;;11.15;3.58;;;17.90;74.20;;;;;;5015902;28;20124;-74
2023/03/09 08:56:14;;;;;;;14.90;3.67;;;17.90;73.50;;;;;;5016030;28;20527;-76
2023/03/09 08:58:40;;;;;;;15.30;3.40;;;18.00;73.30;;;;;;5016483;28;20514;-75
2023/03/09 09:01:08;;;;;;;16.30;3.70;;;18.10;73.50;;;;;;5017726;28;20081;-75
2023/03/09 09:03:35;;;;;;;12.23;4.10;;;18.20;73.10;;;;;;5015890;28;20041;-73
2023/03/09 09:06:07;;;;;;;11.05;3.17;;;18.20;72.60;;;;;;4998042;28;20515;-76
2023/03/09 09:08:33;;;;;;;18.70;4.65;;;18.30;72.90;;;;;;5015457;28;20065;-76
2023/03/09 09:10:59;;;;;;;12.82;3.55;;;18.40;72.70;;;;;;5015698;28;20109;-75
2023/03/09 09:13:25;;;;;;;13.48;3.97;;;18.50;72.70;;;;;;5015263;28;20519;-75
2023/03/09 09:15:54;;;;;;;17.70;4.47;;;18.50;72.30;;;;;;5015014;28;20033;-76
2023/03/09 09:18:20;;;;;;;15.77;5.20;;;18.50;72.30;;;;;;5015211;28;20037;-76
2023/03/09 09:20:47;;;;;;;18.08;4.55;;;18.50;72.40;;;;;;5015345;28;20128;-75
2023/03/09 09:23:13;;;;;;;11.80;4.10;;;18.60;72.10;;;;;;5015150;28;20046;-75
2023/03/09 09:25:39;;;;;;;16.17;3.42;;;18.60;72.00;;;;;;5015303;28;20029;-76
2023/03/09 09:28:05;;;;;;;19.67;4.85;;;18.60;71.50;;;;;;5015469;28;20478;-76
2023/03/09 09:30:32;;;;;;;17.27;4.35;;;18.60;71.10;;;;;;5014992;28;20521;-76
2023/03/09 09:32:59;;;;;;;13.75;3.47;;;18.60;71.30;;;;;;5014587;28;20030;-74
2023/03/09 09:35:25;;;;;;;17.67;4.45;;;18.70;71.30;;;;;;5014633;28;20038;-76
2023/03/09 09:37:54;;;;;;;12.75;3.13;;;18.70;71.10;;;;;;5014396;28;20030;-79
2023/03/09 09:40:20;;;;;;;12.45;3.38;;;18.90;71.20;;;;;;5014545;28;20042;-75
2023/03/09 09:42:47;;;;;;;11.13;3.40;;;18.90;70.90;;;;;;5015625;28;20114;-75
2023/03/09 09:45:32;;;;;;;13.02;3.40;;;19.00;70.40;;;;;;5014643;28;20516;-76
2023/03/09 09:48:02;;;;;;;28.02;4.18;;;19.10;70.50;;;;;;5014750;28;20058;-77
2023/03/09 09:50:41;;;;;;;13.90;3.25;;;19.20;69.70;;;;;;5014839;28;20037;-75
2023/03/09 09:53:13;;;;;;;15.45;3.35;;;19.30;70.30;;;;;;4994731;28;20046;-78
2023/03/09 09:55:41;;;;;;;13.77;3.97;;;19.40;69.20;;;;;;4996130;28;20034;-76
2023/03/09 09:58:30;;;;;;;10.32;2.47;;;19.50;69.00;;;;;;5013300;28;20076;-77
2023/03/09 10:01:00;;;;;;;19.42;3.95;;;19.60;69.20;;;;;;5013061;28;20030;-78
2023/03/09 10:03:35;;;;;;;14.40;3.55;;;19.60;68.60;;;;;;4993191;28;20116;-76
2023/03/09 10:06:21;;;;;;;16.52;3.63;;;19.60;68.60;;;;;;4993009;28;20432;-76
2023/03/09 10:08:58;;;;;;;14.25;3.72;;;19.60;69.10;;;;;;4987350;28;20033;-76
2023/03/09 10:11:48;;;;;;;15.68;3.88;;;19.70;69.50;;;;;;4990807;28;20034;-74
2023/03/09 10:14:41;;;;;;;18.58;3.97;;;19.70;69.70;;;;;;4992740;28;20035;-79
2023/03/09 10:17:31;;;;;;;19.70;4.60;;;19.70;70.20;;;;;;4990809;28;20052;-81
2023/03/09 10:20:02;;;;;;;18.88;4.65;;;19.70;69.90;;;;;;4993331;28;20035;-78
2023/03/09 10:22:28;;;;;;;21.70;4.50;;;19.70;70.10;;;;;;4974564;28;20050;-79
2023/03/09 10:24:55;;;;;;;25.75;5.15;;;19.80;70.00;;;;;;4992541;28;20085;-79
2023/03/09 10:27:59;;;;;;;16.80;4.60;;;19.80;69.70;;;;;;4993499;28;20043;-75
2023/03/09 10:30:31;;;;;;;19.27;5.00;;;19.90;70.00;;;;;;4992846;28;20035;-80
2023/03/09 10:33:46;;;;;;;16.52;4.25;;;19.90;69.80;;;;;;4993034;28;20031;-85
2023/03/09 10:36:31;;;;;;;17.63;4.80;;;20.00;69.90;;;;;;4989906;28;20085;-78
2023/03/09 10:39:24;;;;;;;17.98;4.45;;;20.10;69.80;;;;;;4992033;28;20030;-77
2023/03/09 10:41:54;;;;;;;20.70;4.53;;;20.20;69.70;;;;;;4973111;28;20089;-84
2023/03/09 10:44:21;;;;;;;18.50;4.60;;;20.10;69.40;;;;;;4993101;28;20035;-78
2023/03/09 10:47:13;;;;;;;26.23;5.40;;;20.10;69.60;;;;;;4992497;28;20066;-77
2023/03/09 10:49:39;;;;;;;15.20;4.18;;;20.10;69.60;;;;;;4989346;28;20125;-76
2023/03/09 10:52:16;;;;;;;17.73;4.85;;;20.00;69.70;;;;;;4991555;28;20121;-78
2023/03/09 10:54:41;;;;;;;27.02;5.25;;;19.90;69.60;;;;;;4990846;28;20030;-84
2023/03/09 10:57:24;;;;;;;22.27;4.57;;;19.90;70.00;;;;;;4992921;28;20121;-79
2023/03/09 11:00:11;;;;;;;18.63;4.75;;;19.90;70.00;;;;;;4993464;28;20061;-86
2023/03/09 11:02:37;;;;;;;23.67;4.78;;;19.90;70.50;;;;;;5012983;28;20080;-81
2023/03/09 11:05:19;;;;;;;21.85;5.05;;;19.90;70.30;;;;;;5015758;28;20030;-84
2023/03/09 11:07:52;;;;;;;23.45;5.80;;;19.90;70.30;;;;;;5006895;28;20080;-78
2023/03/09 11:10:36;;;;;;;16.15;4.75;;;20.00;70.40;;;;;;4999722;28;20046;-83
2023/03/09 11:13:04;;;;;;;42.38;6.45;;;20.00;70.40;;;;;;5013039;28;20061;-79
2023/03/09 11:15:37;;;;;;;32.72;6.00;;;20.10;70.40;;;;;;5000316;28;20109;-79
2023/03/09 11:18:23;;;;;;;31.70;6.20;;;20.10;70.10;;;;;;4975769;28;20061;-80
2023/03/09 11:20:54;;;;;;;17.55;4.95;;;20.20;69.90;;;;;;4999050;28;20125;-79
2023/03/09 11:23:44;;;;;;;22.70;5.50;;;20.20;69.90;;;;;;5006657;28;20073;-78
2023/03/09 11:26:12;;;;;;;20.73;5.45;;;20.30;70.20;;;;;;5007606;28;20505;-79
2023/03/09 11:28:44;;;;;;;52.38;7.63;;;20.40;70.10;;;;;;5012606;28;20122;-78
2023/03/09 11:31:20;;;;;;;26.73;5.78;;;20.40;69.70;;;;;;5012329;28;20105;-81
2023/03/09 11:33:48;;;;;;;29.95;5.97;;;20.50;69.90;;;;;;5012762;28;20061;-80
2023/03/09 11:36:20;;;;;;;19.20;4.75;;;20.50;69.90;;;;;;5012108;28;20048;-75
2023/03/09 11:38:47;;;;;;;260.30;24.67;;;20.60;70.10;;;;;;5011789;28;20029;-77
2023/03/09 11:41:13;;;;;;;29.52;6.40;;;20.60;69.70;;;;;;5011438;28;20045;-75
2023/03/09 11:43:42;;;;;;;31.40;6.20;;;20.60;70.00;;;;;;5012333;28;20050;-76
2023/03/09 11:46:14;;;;;;;28.77;5.78;;;20.60;69.60;;;;;;5012526;28;20057;-81
2023/03/09 11:48:48;;;;;;;29.65;6.18;;;20.60;69.40;;;;;;5012373;28;20080;-74
2023/03/09 11:51:24;;;;;;;21.60;5.63;;;20.70;69.50;;;;;;5012188;28;20490;-73
2023/03/09 11:53:56;;;;;;;22.75;5.32;;;20.70;69.40;;;;;;5011796;28;20041;-75
2023/03/09 11:56:29;;;;;;;21.27;5.03;;;20.80;69.60;;;;;;5011677;28;20117;-73
2023/03/09 11:59:05;;;;;;;19.73;4.60;;;20.80;69.50;;;;;;5012153;28;20048;-75
2023/03/09 12:01:37;;;;;;;24.33;4.93;;;20.80;69.40;;;;;;5008600;28;20046;-77
2023/03/09 12:04:07;;;;;;;24.60;5.60;;;20.80;69.50;;;;;;4993139;28;20049;-76
2023/03/09 12:06:44;;;;;;;17.25;4.05;;;20.90;69.30;;;;;;4992778;28;20101;-76
2023/03/09 12:09:26;;;;;;;19.80;4.40;;;20.90;69.20;;;;;;4991154;28;20045;-75
2023/03/09 12:12:19;;;;;;;23.75;5.45;;;20.90;69.10;;;;;;4991421;28;20026;-75
2023/03/09 12:14:50;;;;;;;26.27;5.60;;;20.90;69.00;;;;;;4964859;28;20038;-73
2023/03/09 12:17:24;;;;;;;20.88;4.47;;;20.90;69.20;;;;;;4992678;28;20035;-75
2023/03/09 12:19:53;;;;;;;19.17;4.90;;;20.90;69.40;;;;;;4993237;28;20494;-74
2023/03/09 12:22:39;;;;;;;25.65;6.07;;;20.80;69.40;;;;;;4992511;28;20537;-75
2023/03/09 12:25:15;;;;;;;21.10;5.13;;;20.70;69.60;;;;;;4974891;28;20026;-74
2023/03/09 12:27:52;;;;;;;21.38;5.25;;;20.60;69.50;;;;;;4995578;28;20038;-75
2023/03/09 12:30:25;;;;;;;26.23;5.43;;;20.60;69.90;;;;;;4996436;28;20026;-75
2023/03/09 12:32:50;;;;;;;21.33;4.57;;;20.50;69.80;;;;;;4996674;28;20368;-74
2023/03/09 12:35:22;;;;;;;22.42;4.88;;;20.40;69.80;;;;;;4979156;28;20088;-76
2023/03/09 12:38:04;;;;;;;21.13;5.30;;;20.30;70.00;;;;;;4996374;28;20038;-75
2023/03/09 12:40:36;;;;;;;21.65;5.65;;;20.20;70.50;;;;;;4980223;28;20037;-75
2023/03/09 12:43:13;;;;;;;19.67;5.57;;;20.20;70.60;;;;;;4996903;28;20046;-74
2023/03/09 12:45:40;;;;;;;19.80;5.93;;;20.20;70.70;;;;;;4997223;28;20030;-75
2023/03/09 12:48:12;;;;;;;21.33;5.03;;;20.20;70.80;;;;;;4997934;28;20121;-74
2023/03/09 12:50:45;;;;;;;21.92;5.10;;;20.20;71.00;;;;;;4998006;28;20030;-76
2023/03/09 12:53:13;;;;;;;27.85;5.72;;;20.20;70.80;;;;;;4978747;28;20557;-74